Time;durP1;ratioP1;P1;durP2;ratioP2;P2;SDS_P1;SDS_P2;PMS_P1;PMS_P2;Temp;Humidity;BMP_temperature;BMP_pressure;BME280_temperature;BME280_humidity;BME280_pressure;Samples;Min_cycle;Max_cycle;Signal;HPM_P1;HPM_P2
2023/06/09 00:02:19;;;;;;;4.47;3.53;;;;;;;14.15;40.71;95399.03;4924987;29;20047;-74
2023/06/09 00:04:45;;;;;;;4.18;3.38;;;;;;;14.07;40.44;95397.34;4924460;29;20089;-75
2023/06/09 00:07:11;;;;;;;4.10;3.70;;;;;;;14.07;40.41;95390.16;4924585;29;20042;-74
2023/06/09 00:09:36;;;;;;;4.13;3.60;;;;;;;13.86;40.84;95395.66;4924755;29;20403;-74
2023/06/09 00:12:02;;;;;;;5.53;3.70;;;;;;;13.68;41.47;95394.41;4924314;29;20032;-74
2023/06/09 00:14:28;;;;;;;4.15;3.50;;;;;;;13.57;42.45;95391.31;4924524;29;20031;-74
2023/06/09 00:16:55;;;;;;;6.05;3.45;;;;;;;13.36;41.98;95389.59;4924116;29;20051;-74
2023/06/09 00:19:22;;;;;;;4.07;3.35;;;;;;;13.36;43.04;95394.16;4923856;29;20044;-74
2023/06/09 00:21:50;;;;;;;4.10;3.70;;;;;;;13.49;42.99;95390.69;4924634;29;20127;-75
2023/06/09 00:24:19;;;;;;;4.10;3.55;;;;;;;13.13;43.65;95390.75;4922685;29;20043;-74
2023/06/09 00:26:45;;;;;;;4.70;3.67;;;;;;;13.05;43.72;95385.59;4924500;29;20036;-74
2023/06/09 00:29:10;;;;;;;4.28;3.88;;;;;;;13.22;43.56;95391.41;4924583;29;20039;-74
2023/06/09 00:31:36;;;;;;;4.25;3.47;;;;;;;13.52;42.34;95393.78;4924251;29;20066;-74
2023/06/09 00:34:01;;;;;;;4.90;3.70;;;;;;;13.50;43.07;95395.81;4918259;29;20408;-74
2023/06/09 00:36:26;;;;;;;5.00;3.92;;;;;;;13.33;43.18;95390.03;4923891;29;20082;-74
2023/06/09 00:38:52;;;;;;;5.10;3.78;;;;;;;13.38;43.30;95390.25;4923537;29;20031;-74
2023/06/09 00:41:17;;;;;;;5.53;3.50;;;;;;;13.51;43.10;95388.63;4924397;29;20572;-74
2023/06/09 00:43:47;;;;;;;4.22;3.40;;;;;;;13.56;42.32;95391.50;4923846;29;20070;-75
2023/06/09 00:46:13;;;;;;;4.22;3.50;;;;;;;13.73;42.11;95386.59;4924395;29;20495;-74
2023/06/09 00:48:38;;;;;;;3.97;3.55;;;;;;;13.67;42.24;95390.09;4929498;29;20039;-74
2023/06/09 00:51:03;;;;;;;4.00;3.60;;;;;;;13.66;42.03;95399.97;4923844;29;20039;-74
2023/06/09 00:53:29;;;;;;;5.00;3.90;;;;;;;13.75;41.78;95391.75;4910144;29;20490;-75
2023/06/09 00:55:55;;;;;;;6.50;3.67;;;;;;;13.86;40.97;95390.31;4912308;29;20135;-75
2023/06/09 00:58:20;;;;;;;3.70;3.30;;;;;;;13.95;40.90;95391.81;4913730;29;20031;-75
2023/06/09 01:00:46;;;;;;;3.80;3.22;;;;;;;14.02;40.64;95395.31;4924145;29;20042;-65
2023/06/09 01:03:11;;;;;;;3.45;3.13;;;;;;;14.07;40.29;95392.00;4932739;23;20184;-92
2023/06/09 01:05:38;;;;;;;3.33;3.03;;;;;;;14.06;40.25;95385.84;4910206;29;20090;-93
2023/06/09 01:08:04;;;;;;;4.07;3.20;;;;;;;14.09;40.14;95384.59;4909438;28;20241;-93
2023/06/09 01:10:43;;;;;;;4.75;3.20;;;;;;;14.05;40.33;95391.41;4936664;28;20917;-94
2023/06/09 01:13:36;;;;;;;3.25;2.90;;;;;;;14.10;40.22;95385.44;4935903;28;20046;-92
2023/06/09 01:16:08;;;;;;;3.63;3.08;;;;;;;14.09;40.02;95381.94;4911883;29;20118;-94
2023/06/09 01:18:35;;;;;;;4.10;3.00;;;;;;;14.08;39.60;95389.13;4925715;28;20756;-94
2023/06/09 01:21:41;;;;;;;4.00;3.10;;;;;;;14.03;40.23;95385.41;4925203;28;20654;-92
2023/06/09 01:24:30;;;;;;;3.13;2.70;;;;;;;14.04;39.77;95387.09;4930231;28;20238;-93
2023/06/09 01:26:56;;;;;;;4.35;3.30;;;;;;;14.03;40.07;95388.09;4937627;28;20069;-93
2023/06/09 01:29:21;;;;;;;3.92;3.33;;;;;;;14.02;39.90;95389.13;4926099;29;20031;-92
2023/06/09 01:31:47;;;;;;;4.60;3.30;;;;;;;14.04;39.85;95392.44;4925507;29;20589;-93
2023/06/09 01:34:13;;;;;;;3.33;3.03;;;;;;;14.00;40.06;95389.34;4925524;29;20030;-93
2023/06/09 01:36:38;;;;;;;4.45;3.40;;;;;;;14.00;40.48;95388.53;4924982;29;20031;-93
2023/06/09 01:39:04;;;;;;;4.43;2.83;;;;;;;14.06;39.57;95379.66;4908742;28;20077;-93
2023/06/09 01:41:30;;;;;;;3.35;3.05;;;;;;;14.07;40.05;95390.16;4910092;28;20033;-95
2023/06/09 01:43:55;;;;;;;3.97;3.22;;;;;;;14.11;39.71;95382.53;4928309;29;20035;-92
2023/06/09 01:46:21;;;;;;;3.65;3.10;;;;;;;14.11;39.96;95373.69;4929504;28;20039;-93
2023/06/09 01:48:49;;;;;;;3.78;3.00;;;;;;;14.12;39.46;95378.84;4919143;29;20046;-93
2023/06/09 01:51:31;;;;;;;4.13;3.20;;;;;;;14.05;40.04;95384.19;4935497;28;20508;-94
2023/06/09 01:54:01;;;;;;;4.90;3.10;;;;;;;14.13;39.97;95376.97;4930061;29;20071;-93
2023/06/09 01:56:46;;;;;;;3.67;2.90;;;;;;;14.13;39.65;95375.13;4938465;28;20390;-92
2023/06/09 01:59:17;;;;;;;4.07;3.08;;;;;;;14.18;39.50;95383.34;4927366;29;20077;-93
2023/06/09 02:01:43;;;;;;;4.10;3.00;;;;;;;14.19;39.20;95378.84;4939442;28;20027;-93
2023/06/09 02:04:09;;;;;;;4.22;3.15;;;;;;;14.16;39.59;95382.75;4928819;29;20279;-92
2023/06/09 02:06:34;;;;;;;3.60;3.10;;;;;;;14.16;39.27;95377.41;4929469;29;20027;-93
2023/06/09 02:09:00;;;;;;;4.50;3.10;;;;;;;14.20;39.66;95378.63;4928292;29;20050;-93
2023/06/09 02:11:26;;;;;;;4.55;3.30;;;;;;;14.11;39.61;95371.81;4928857;29;20070;-92
2023/06/09 02:13:53;;;;;;;4.43;3.20;;;;;;;14.08;39.49;95373.06;4944889;28;20031;-93
2023/06/09 02:16:18;;;;;;;5.32;2.92;;;;;;;14.00;39.81;95369.78;4943808;28;20042;-94
2023/06/09 02:18:44;;;;;;;5.10;3.00;;;;;;;14.05;39.63;95370.00;4928617;28;20019;-93
2023/06/09 02:21:10;;;;;;;3.47;2.90;;;;;;;14.04;39.74;95365.66;4913422;29;20019;-92
2023/06/09 02:23:38;;;;;;;3.22;2.70;;;;;;;14.04;39.43;95363.81;4928751;29;20047;-93
2023/06/09 02:26:03;;;;;;;;;;;;;;;14.06;39.45;95358.25;4929146;28;20059;-92
2023/06/09 02:28:29;;;;;;;3.20;2.87;;;;;;;14.13;39.22;95366.25;4943298;29;19954;-93
2023/06/09 02:30:54;;;;;;;3.50;3.10;;;;;;;14.08;39.22;95358.88;4912277;28;20027;-93
2023/06/09 02:33:19;;;;;;;3.47;3.00;;;;;;;14.11;38.97;95358.44;4927678;29;20042;-93
2023/06/09 02:35:45;;;;;;;3.17;2.80;;;;;;;13.83;40.08;95360.28;4925888;29;20039;-94
2023/06/09 02:38:11;;;;;;;3.47;3.17;;;;;;;14.02;39.74;95363.19;4927642;28;20031;-94
2023/06/09 02:40:38;;;;;;;3.17;2.88;;;;;;;14.15;39.03;95359.69;4927400;29;20035;-93
2023/06/09 02:43:04;;;;;;;4.00;2.90;;;;;;;14.15;39.46;95362.38;4926200;28;20042;-93
2023/06/09 02:45:29;;;;;;;4.30;3.10;;;;;;;14.15;39.35;95364.22;4928259;29;20027;-93
2023/06/09 02:47:55;;;;;;;3.63;3.00;;;;;;;14.16;39.51;95365.84;4927144;29;20046;-93
2023/06/09 02:50:22;;;;;;;3.75;2.90;;;;;;;14.22;39.72;95365.03;4911088;29;20042;-93
2023/06/09 02:52:48;;;;;;;3.40;3.03;;;;;;;14.26;39.25;95370.78;4918081;29;20130;-93
2023/06/09 02:55:14;;;;;;;3.47;3.13;;;;;;;14.19;39.71;95362.78;4925887;29;20592;-92
2023/06/09 02:57:39;;;;;;;4.95;3.10;;;;;;;14.30;39.39;95366.66;4911269;29;20059;-93
2023/06/09 03:00:07;;;;;;;4.18;3.22;;;;;;;14.33;39.44;95371.59;4943097;28;20039;-93
2023/06/09 03:02:34;;;;;;;4.47;3.25;;;;;;;14.30;39.34;95364.00;4909767;28;20452;-92
2023/06/09 03:05:00;;;;;;;4.75;3.35;;;;;;;14.26;39.73;95368.94;4928839;28;20101;-94
2023/06/09 03:07:26;;;;;;;4.60;3.40;;;;;;;14.19;40.04;95368.97;4927970;28;20713;-93
2023/06/09 03:09:51;;;;;;;4.25;3.25;;;;;;;14.29;39.93;95375.72;4928331;29;20034;-93
2023/06/09 03:12:16;;;;;;;4.03;3.42;;;;;;;14.32;39.87;95378.00;4926282;29;20031;-93
2023/06/09 03:14:42;;;;;;;4.15;3.47;;;;;;;14.37;39.61;95383.56;4944424;28;20035;-94
2023/06/09 03:17:10;;;;;;;4.00;3.25;;;;;;;14.30;39.75;95377.38;4928067;29;20465;-92
2023/06/09 03:19:35;;;;;;;;;;;;;;;14.30;39.82;95382.72;4941475;28;20126;-94
2023/06/09 03:22:03;;;;;;;3.97;3.20;;;;;;;14.31;39.71;95377.16;4944061;28;20106;-93
2023/06/09 03:24:29;;;;;;;3.70;3.20;;;;;;;14.39;39.67;95384.19;4928061;28;20043;-93
2023/06/09 03:26:55;;;;;;;4.53;3.10;;;;;;;14.42;39.77;95370.34;4927272;28;20019;-91
2023/06/09 03:29:21;;;;;;;4.13;3.30;;;;;;;14.42;39.60;95377.56;4927046;29;20046;-92
2023/06/09 03:31:46;;;;;;;4.57;3.33;;;;;;;14.38;39.94;95379.03;4911158;29;20039;-92
2023/06/09 03:34:11;;;;;;;3.60;3.30;;;;;;;14.36;39.84;95381.06;4942811;29;20569;-91
2023/06/09 03:36:37;;;;;;;4.05;3.33;;;;;;;14.36;40.02;95373.88;4927329;29;20038;-92
2023/06/09 03:39:03;;;;;;;4.18;3.50;;;;;;;14.33;39.93;95376.97;4926220;28;20036;-92
2023/06/09 03:41:28;;;;;;;5.45;3.47;;;;;;;14.38;39.94;95371.81;4928348;28;20050;-91
2023/06/09 03:43:54;;;;;;;4.78;3.45;;;;;;;14.36;40.08;95379.22;4911137;29;20478;-92
2023/06/09 03:46:19;;;;;;;4.45;3.40;;;;;;;14.42;40.07;95375.69;4943879;28;20027;-92
2023/06/09 03:48:44;;;;;;;4.78;3.53;;;;;;;14.52;40.29;95377.16;4911556;29;20046;-92
2023/06/09 03:51:10;;;;;;;6.72;3.50;;;;;;;14.39;40.19;95380.66;4910661;29;20039;-92
2023/06/09 03:53:35;;;;;;;5.10;3.50;;;;;;;14.54;40.75;95383.09;4926824;29;20120;-91
2023/06/09 03:56:01;;;;;;;4.00;3.50;;;;;;;14.54;40.22;95377.75;4942011;28;20628;-92
2023/06/09 03:58:27;;;;;;;5.13;3.60;;;;;;;14.54;40.52;95375.91;4926699;28;20035;-91
2023/06/09 04:00:52;;;;;;;8.02;4.32;;;;;;;14.52;40.98;95382.50;4924480;28;20145;-91
2023/06/09 04:03:19;;;;;;;5.63;3.90;;;;;;;14.65;40.94;95379.78;4925621;29;20102;-92
2023/06/09 04:05:45;;;;;;;5.10;3.40;;;;;;;14.69;40.70;95386.38;4941908;28;20136;-90
2023/06/09 04:08:10;;;;;;;5.35;3.83;;;;;;;14.79;40.98;95382.47;4940954;28;20039;-91
2023/06/09 04:10:36;;;;;;;7.22;3.92;;;;;;;14.66;40.83;95377.94;4925321;28;20031;-90
2023/06/09 04:13:01;;;;;;;8.45;4.47;;;;;;;14.88;41.44;95381.19;4926883;28;20393;-92
2023/06/09 04:15:27;;;;;;;4.97;3.85;;;;;;;14.90;40.93;95383.66;4910277;29;20067;-91
2023/06/09 04:17:52;;;;;;;4.85;4.07;;;;;;;15.01;41.21;95377.66;4926354;29;20441;-91
2023/06/09 04:20:21;;;;;;;4.43;3.95;;;;;;;14.93;41.18;95380.56;4925473;29;20039;-90
2023/06/09 04:22:50;;;;;;;4.53;3.80;;;;;;;15.03;40.77;95378.25;4925902;28;20358;-92
2023/06/09 04:25:16;;;;;;;6.10;3.80;;;;;;;15.12;40.94;95376.16;4925691;29;20427;-91
2023/06/09 04:27:42;;;;;;;4.28;3.80;;;;;;;15.15;41.03;95375.75;4924779;29;20042;-92
2023/06/09 04:30:08;;;;;;;5.68;3.85;;;;;;;15.13;41.15;95383.16;4926224;29;20031;-91
2023/06/09 04:32:34;;;;;;;4.50;3.90;;;;;;;15.22;41.07;95383.75;4940775;28;20050;-93
2023/06/09 04:35:01;;;;;;;6.22;3.90;;;;;;;15.26;40.81;95376.13;4924616;28;20067;-91
2023/06/09 04:37:26;;;;;;;4.38;3.85;;;;;;;15.34;40.52;95381.22;4926810;28;20023;-90
2023/06/09 04:39:52;;;;;;;4.25;3.85;;;;;;;15.45;40.66;95385.91;4925248;29;20074;-93
2023/06/09 04:42:19;;;;;;;5.47;4.32;;;;;;;15.23;40.65;95383.53;4925589;29;20039;-92
2023/06/09 04:44:47;;;;;;;5.70;4.22;;;;;;;15.56;40.75;95383.59;4926283;28;20117;-91
2023/06/09 04:47:20;;;;;;;5.40;3.92;;;;;;;15.74;40.47;95391.75;4926319;28;20497;-93
2023/06/09 04:49:49;;;;;;;5.47;4.00;;;;;;;15.84;40.22;95382.41;4942664;28;20035;-92
2023/06/09 04:52:17;;;;;;;7.60;3.97;;;;;;;15.83;39.29;95388.78;4924730;28;20601;-92
2023/06/09 04:54:44;;;;;;;5.00;3.80;;;;;;;15.91;39.98;95393.09;4926069;28;20042;-91
2023/06/09 04:57:10;;;;;;;8.83;4.27;;;;;;;15.93;40.09;95391.81;4926277;28;20494;-91
2023/06/09 04:59:37;;;;;;;6.15;4.28;;;;;;;16.36;39.40;95392.13;4925671;28;20039;-92
2023/06/09 05:02:03;;;;;;;4.47;3.97;;;;;;;16.35;38.93;95398.56;4925359;28;20123;-93
2023/06/09 05:04:28;;;;;;;8.52;4.13;;;;;;;16.39;39.32;95397.06;4924074;28;20112;-93
2023/06/09 05:06:55;;;;;;;5.57;4.40;;;;;;;16.41;39.25;95396.84;4923475;28;20030;-93
2023/06/09 05:09:20;;;;;;;5.75;4.00;;;;;;;16.50;38.80;95398.19;4924290;29;20226;-92
2023/06/09 05:11:46;;;;;;;6.47;4.30;;;;;;;16.59;38.71;95394.19;4924777;29;20390;-93
2023/06/09 05:14:11;;;;;;;6.13;4.20;;;;;;;16.79;38.47;95393.16;4924321;29;20455;-92
2023/06/09 05:16:37;;;;;;;5.97;4.38;;;;;;;16.88;38.99;95401.75;4906290;29;20450;-92
2023/06/09 05:19:03;;;;;;;5.25;4.20;;;;;;;16.93;38.47;95398.41;4924315;28;20267;-92
2023/06/09 05:21:28;;;;;;;7.35;4.00;;;;;;;16.99;38.05;95397.47;4923959;29;20039;-93
2023/06/09 05:23:54;;;;;;;6.30;4.30;;;;;;;17.01;37.70;95396.22;4924770;29;20047;-92
2023/06/09 05:26:19;;;;;;;7.93;4.28;;;;;;;17.36;37.81;95397.50;4940526;29;20078;-93
2023/06/09 05:28:48;;;;;;;4.72;3.90;;;;;;;17.32;37.39;95398.16;4939241;28;20043;-92
2023/06/09 05:31:14;;;;;;;7.10;4.60;;;;;;;17.39;36.90;95404.28;4923487;29;20051;-91
2023/06/09 05:33:40;;;;;;;5.93;3.97;;;;;;;17.51;36.69;95409.72;4923951;28;20039;-91
2023/06/09 05:36:06;;;;;;;6.15;4.28;;;;;;;17.48;37.05;95405.63;4923999;28;20047;-92
2023/06/09 05:38:31;;;;;;;6.28;4.30;;;;;;;17.58;36.04;95407.75;4925108;29;20023;-91
2023/06/09 05:40:57;;;;;;;6.50;4.20;;;;;;;17.71;36.55;95408.63;4940761;28;20062;-92
2023/06/09 05:43:26;;;;;;;6.72;3.88;;;;;;;17.77;36.21;95405.84;4923378;29;20528;-93
2023/06/09 05:45:52;;;;;;;5.50;3.90;;;;;;;17.78;36.49;95402.09;4909317;29;20724;-92
2023/06/09 05:48:17;;;;;;;5.90;4.15;;;;;;;17.91;36.25;95411.03;4923051;28;20131;-92
2023/06/09 05:50:45;;;;;;;5.93;3.78;;;;;;;17.99;35.54;95412.59;4923562;28;20046;-92
2023/06/09 05:53:10;;;;;;;6.45;4.20;;;;;;;18.11;34.81;95420.69;4923978;29;20078;-92
2023/06/09 05:55:36;;;;;;;5.93;4.00;;;;;;;18.46;34.91;95411.03;4923820;29;20043;-92
2023/06/09 05:58:02;;;;;;;7.57;4.20;;;;;;;18.33;34.79;95422.84;4909198;29;20027;-91
2023/06/09 06:00:30;;;;;;;5.10;3.90;;;;;;;18.60;34.98;95414.34;4922924;28;20726;-93
2023/06/09 06:02:56;;;;;;;4.90;4.07;;;;;;;18.67;34.35;95420.44;4909555;28;20105;-92
2023/06/09 06:05:21;;;;;;;4.97;3.80;;;;;;;18.70;34.54;95419.97;4908821;28;20074;-94
2023/06/09 06:07:47;;;;;;;4.30;3.60;;;;;;;19.12;34.66;95423.53;4924206;28;20055;-92
2023/06/09 06:10:12;;;;;;;4.82;3.75;;;;;;;19.12;34.47;95428.94;4925064;28;20019;-92
2023/06/09 06:12:38;;;;;;;5.25;3.75;;;;;;;19.18;34.20;95422.59;4924110;29;20055;-92
2023/06/09 06:15:04;;;;;;;4.97;3.70;;;;;;;19.15;33.94;95433.84;4925478;28;20039;-93
2023/06/09 06:17:29;;;;;;;4.78;3.70;;;;;;;19.45;32.95;95439.09;4940310;28;20034;-92
2023/06/09 06:19:56;;;;;;;5.05;3.85;;;;;;;19.50;33.54;95437.53;4924166;29;20695;-92
2023/06/09 06:22:22;;;;;;;6.00;3.83;;;;;;;19.60;33.42;95432.34;4924794;28;20038;-92
2023/06/09 06:24:47;;;;;;;5.30;3.70;;;;;;;19.81;33.42;95430.84;4923877;29;20063;-94
2023/06/09 06:27:13;;;;;;;5.05;3.70;;;;;;;19.85;32.25;95437.41;4924139;28;20051;-94
2023/06/09 06:29:41;;;;;;;4.47;3.90;;;;;;;19.79;32.67;95441.06;4927643;29;20363;-92
2023/06/09 06:32:07;;;;;;;4.93;3.80;;;;;;;19.94;32.57;95450.53;4927279;29;20655;-94
2023/06/09 06:34:32;;;;;;;4.00;3.60;;;;;;;20.03;32.24;95443.72;4926167;29;20121;-92
2023/06/09 06:36:58;;;;;;;5.35;3.70;;;;;;;20.20;32.72;95449.09;4942917;28;20046;-94
2023/06/09 06:39:23;;;;;;;4.72;3.78;;;;;;;20.24;32.92;95454.88;4911900;29;20369;-94
2023/06/09 06:41:49;;;;;;;5.25;3.85;;;;;;;20.57;32.15;95450.50;4927937;29;20481;-93
2023/06/09 06:44:14;;;;;;;5.93;3.60;;;;;;;20.53;31.83;95454.78;4926436;28;20398;-93
2023/06/09 06:46:40;;;;;;;4.32;3.60;;;;;;;20.47;31.81;95461.19;4927536;28;20034;-92
2023/06/09 06:49:05;;;;;;;4.07;3.60;;;;;;;20.52;31.55;95457.72;4926871;29;20800;-91
2023/06/09 06:51:31;;;;;;;5.35;3.50;;;;;;;20.49;32.00;95459.03;4943200;28;20600;-92
2023/06/09 06:53:56;;;;;;;5.78;3.67;;;;;;;20.96;31.75;95465.19;4927117;29;20044;-92
2023/06/09 06:56:22;;;;;;;4.95;3.60;;;;;;;20.96;30.83;95457.88;4926982;29;20421;-94
2023/06/09 06:58:48;;;;;;;8.13;3.88;;;;;;;21.23;30.67;95451.75;4927558;28;20684;-93
2023/06/09 07:01:17;;;;;;;3.95;3.45;;;;;;;21.41;29.88;95451.72;4927142;28;20255;-93
2023/06/09 07:03:42;;;;;;;4.93;3.45;;;;;;;21.53;29.58;95449.72;4925598;29;20055;-92
2023/06/09 07:06:09;;;;;;;5.78;3.22;;;;;;;21.29;29.35;95443.72;4926809;28;20074;-91
2023/06/09 07:08:36;;;;;;;4.28;3.20;;;;;;;21.38;29.42;95448.44;4927117;28;20039;-93
2023/06/09 07:11:02;;;;;;;5.88;3.22;;;;;;;21.08;29.09;95448.84;4926920;28;20066;-91
2023/06/09 07:13:27;;;;;;;3.53;2.85;;;;;;;20.99;29.50;95451.16;4926777;28;20473;-91
2023/06/09 07:15:53;;;;;;;5.32;3.45;;;;;;;20.89;28.99;95459.94;4925193;29;20307;-91
2023/06/09 07:18:18;;;;;;;5.57;3.28;;;;;;;21.02;29.42;95453.38;4925843;29;20046;-90
2023/06/09 07:20:44;;;;;;;4.10;3.38;;;;;;;21.39;29.10;95462.81;4942411;28;20043;-92
2023/06/09 07:23:15;;;;;;;4.43;3.10;;;;;;;21.22;29.27;95457.41;4941399;29;20035;-94
2023/06/09 07:25:40;;;;;;;5.00;3.28;;;;;;;20.98;29.51;95465.75;4926465;29;20400;-92
2023/06/09 07:28:05;;;;;;;5.25;3.05;;;;;;;21.25;28.68;95467.75;4925900;29;20054;-91
2023/06/09 07:30:31;;;;;;;5.00;3.30;;;;;;;21.73;28.37;95476.22;4942680;28;20027;-93
2023/06/09 07:32:57;;;;;;;4.65;3.17;;;;;;;21.78;28.49;95470.03;4910055;29;20043;-92
2023/06/09 07:35:23;;;;;;;4.20;3.28;;;;;;;21.84;28.34;95477.16;4940575;28;20511;-92
2023/06/09 07:37:50;;;;;;;3.88;3.22;;;;;;;22.02;28.28;95477.88;4926865;29;20023;-91
2023/06/09 07:40:15;;;;;;;4.47;2.90;;;;;;;21.78;28.69;95475.44;4941769;28;20081;-92
2023/06/09 07:42:41;;;;;;;7.00;3.28;;;;;;;22.04;27.97;95473.03;4942964;28;20059;-91
2023/06/09 07:45:07;;;;;;;3.60;2.90;;;;;;;21.94;27.38;95475.63;4925108;29;20486;-90
2023/06/09 07:47:32;;;;;;;5.82;3.30;;;;;;;22.39;27.72;95465.47;4924190;28;20316;-90
2023/06/09 07:49:58;;;;;;;4.25;3.17;;;;;;;22.81;27.31;95471.28;4923712;29;20257;-91
2023/06/09 07:53:04;;;;;;;4.85;3.22;;;;;;;22.60;26.96;95465.69;4924976;29;20526;-92
2023/06/09 07:55:30;;;;;;;;;;;;;;;22.77;27.15;95465.53;4916793;28;20043;-93
2023/06/09 07:57:59;;;;;;;8.23;5.33;;;;;;;22.62;26.90;95458.94;4942554;28;20336;-93
2023/06/09 08:00:25;;;;;;;8.15;3.85;;;;;;;22.54;26.83;95464.84;4941710;28;20241;-92
2023/06/09 08:02:53;;;;;;;7.97;4.90;;;;;;;22.45;27.11;95458.22;4942107;29;20043;-92
2023/06/09 08:05:19;;;;;;;5.18;4.10;;;;;;;22.54;26.81;95464.84;4926013;28;20066;-93
2023/06/09 08:07:45;;;;;;;4.68;3.40;;;;;;;22.81;26.59;95461.25;4908831;28;20039;-93
2023/06/09 08:10:54;;;;;;;7.35;3.20;;;;;;;23.07;26.98;95455.94;4926424;28;20034;-91
2023/06/09 08:13:19;;;;;;;5.25;3.58;;;;;;;23.03;26.62;95452.13;4942486;28;20302;-92
2023/06/09 08:15:45;;;;;;;5.07;3.42;;;;;;;23.17;26.12;95466.09;4924176;28;20393;-93
2023/06/09 08:18:10;;;;;;;4.32;3.05;;;;;;;23.10;26.02;95462.75;4927368;29;20023;-94
2023/06/09 08:20:36;;;;;;;5.00;3.10;;;;;;;23.50;25.82;95465.97;4924417;29;20043;-93
2023/06/09 08:23:02;;;;;;;7.25;3.15;;;;;;;23.40;25.84;95469.47;4925398;29;20031;-92
2023/06/09 08:25:27;;;;;;;5.25;3.03;;;;;;;23.15;25.80;95466.34;4925534;28;20039;-92
2023/06/09 08:27:52;;;;;;;5.65;3.20;;;;;;;22.97;25.73;95477.63;4941523;28;20047;-92
2023/06/09 08:30:18;;;;;;;7.60;3.10;;;;;;;23.37;25.78;95468.09;4925886;29;20516;-91
2023/06/09 08:32:44;;;;;;;4.20;2.80;;;;;;;23.79;25.65;95469.09;4940961;29;20477;-91
2023/06/09 08:35:10;;;;;;;4.90;3.20;;;;;;;23.75;25.92;95473.41;4940998;28;20406;-92
2023/06/09 08:37:36;;;;;;;7.72;2.90;;;;;;;23.79;25.46;95457.38;4925589;29;20429;-91
2023/06/09 08:40:04;;;;;;;6.88;3.20;;;;;;;23.58;25.67;95470.88;4941143;29;20035;-92
2023/06/09 08:42:30;;;;;;;7.60;4.20;;;;;;;23.97;24.71;95458.81;4925753;28;20138;-92
2023/06/09 08:45:06;;;;;;;5.88;3.60;;;;;;;23.75;24.95;95461.72;4939120;28;20063;-92
2023/06/09 08:47:33;;;;;;;6.53;3.87;;;;;;;23.69;25.78;95467.13;4925279;28;20034;-92
2023/06/09 08:49:59;;;;;;;4.35;2.75;;;;;;;24.22;25.41;95459.09;4941671;29;20022;-92
2023/06/09 08:52:25;;;;;;;4.53;3.38;;;;;;;24.10;25.20;95452.00;4922456;29;20065;-91
2023/06/09 08:54:52;;;;;;;4.30;3.15;;;;;;;24.34;24.97;95457.00;4941041;28;20508;-91
2023/06/09 08:57:18;;;;;;;5.03;3.00;;;;;;;24.27;25.35;95468.09;4899183;29;20129;-92
2023/06/09 08:59:44;;;;;;;3.35;2.80;;;;;;;24.48;24.63;95451.81;4924288;28;20379;-92
2023/06/09 09:02:10;;;;;;;5.07;2.85;;;;;;;24.79;25.02;95450.97;4925133;29;20764;-93
2023/06/09 09:04:38;;;;;;;4.78;2.97;;;;;;;25.09;24.25;95452.03;4924881;29;20126;-92
2023/06/09 09:07:05;;;;;;;4.68;2.90;;;;;;;25.21;24.07;95446.28;4924827;29;20251;-93
2023/06/09 09:09:30;;;;;;;3.13;2.83;;;;;;;25.33;23.46;95449.50;4940362;28;20094;-90
2023/06/09 09:11:59;;;;;;;3.83;3.33;;;;;;;25.50;23.69;95450.28;4923381;29;20047;-89
2023/06/09 09:14:25;;;;;;;4.45;3.42;;;;;;;25.50;23.50;95458.47;4941988;28;20114;-89
2023/06/09 09:16:50;;;;;;;4.73;3.10;;;;;;;25.44;23.98;95450.28;4924767;29;20498;-89
2023/06/09 09:19:29;;;;;;;4.03;3.00;;;;;;;25.62;23.37;95452.72;4941349;29;20026;-90
2023/06/09 09:22:02;;;;;;;5.35;3.85;;;;;;;25.22;23.55;95442.47;4940809;28;20378;-90
2023/06/09 09:24:30;;;;;;;4.93;3.30;;;;;;;25.32;23.44;95441.63;4923123;29;20039;-90
2023/06/09 09:26:56;;;;;;;5.63;3.03;;;;;;;25.56;23.05;95446.47;4939851;29;20051;-90
2023/06/09 09:29:26;;;;;;;6.03;3.40;;;;;;;25.64;23.45;95436.88;4925851;29;20042;-89
2023/06/09 09:31:55;;;;;;;3.95;2.92;;;;;;;25.02;23.58;95446.06;4940572;28;20043;-91
2023/06/09 09:34:21;;;;;;;4.82;3.03;;;;;;;25.72;23.26;95439.84;4923727;29;20248;-90
2023/06/09 09:36:47;;;;;;;5.03;3.17;;;;;;;25.39;23.25;95447.56;4924243;29;20043;-90
2023/06/09 09:39:12;;;;;;;3.70;2.93;;;;;;;25.22;23.27;95445.22;4939911;29;20031;-91
2023/06/09 09:41:38;;;;;;;9.40;3.00;;;;;;;25.16;23.09;95438.97;4940426;28;20450;-89
2023/06/09 09:44:03;;;;;;;7.70;3.10;;;;;;;25.59;23.09;95441.25;4940579;28;20035;-90
2023/06/09 09:46:36;;;;;;;4.83;2.90;;;;;;;25.99;23.47;95433.13;4956465;28;20134;-89
2023/06/09 09:49:02;;;;;;;3.95;2.80;;;;;;;26.32;23.20;95431.84;4923812;29;20047;-91
2023/06/09 09:51:27;;;;;;;4.50;2.90;;;;;;;25.78;22.75;95437.06;4924607;28;20417;-90
2023/06/09 09:53:53;;;;;;;3.60;3.00;;;;;;;25.89;22.55;95432.41;4916581;29;20067;-90
2023/06/09 09:56:22;;;;;;;3.53;2.90;;;;;;;26.19;23.10;95436.84;4924189;29;20035;-90
2023/06/09 09:58:48;;;;;;;3.90;2.90;;;;;;;26.38;23.48;95438.91;4955932;28;20059;-90
2023/06/09 10:01:13;;;;;;;4.35;2.88;;;;;;;26.96;21.59;95436.47;4939989;28;20062;-89
2023/06/09 10:03:41;;;;;;;5.53;3.00;;;;;;;26.59;22.21;95433.28;4924502;28;20047;-90
2023/06/09 10:06:09;;;;;;;4.07;3.08;;;;;;;27.03;21.54;95436.97;4928394;29;20031;-90
2023/06/09 10:08:35;;;;;;;6.72;3.22;;;;;;;26.98;21.84;95435.09;4943296;28;20236;-91
2023/06/09 10:11:00;;;;;;;7.17;2.90;;;;;;;26.98;21.89;95429.63;4944341;29;20035;-90
2023/06/09 10:13:26;;;;;;;6.97;2.70;;;;;;;27.38;21.36;95429.47;4943215;28;20576;-91
2023/06/09 10:15:55;;;;;;;3.10;2.60;;;;;;;27.58;21.64;95429.50;4925172;28;20387;-89
2023/06/09 10:18:21;;;;;;;6.40;3.38;;;;;;;27.28;20.58;95424.13;4928862;29;20516;-90
2023/06/09 10:20:48;;;;;;;3.10;2.80;;;;;;;27.38;20.99;95421.28;4944138;28;20466;-89
2023/06/09 10:23:14;;;;;;;;;;;;;;;27.75;20.87;95421.66;4944582;29;20122;-91
2023/06/09 10:25:39;;;;;;;4.28;2.90;;;;;;;27.95;20.08;95410.72;4943118;28;20436;-90
2023/06/09 10:28:05;;;;;;;8.43;3.07;;;;;;;28.06;20.71;95417.66;4943589;29;20050;-91
2023/06/09 10:30:30;;;;;;;5.67;3.00;;;;;;;27.95;20.53;95430.69;4927880;29;20082;-90
2023/06/09 10:32:58;;;;;;;4.33;2.83;;;;;;;27.99;20.51;95426.25;4927837;29;20035;-90
2023/06/09 10:35:28;;;;;;;3.20;2.72;;;;;;;28.28;19.62;95427.22;4925993;28;20046;-92
2023/06/09 10:37:54;;;;;;;5.15;2.78;;;;;;;28.46;19.74;95425.56;4927380;29;20413;-91
2023/06/09 10:40:24;;;;;;;9.00;3.10;;;;;;;28.93;20.13;95419.28;4928601;29;20039;-90
2023/06/09 10:43:18;;;;;;;5.55;2.97;;;;;;;29.05;18.96;95414.13;4927053;29;20307;-90
2023/06/09 10:45:56;;;;;;;6.13;2.97;;;;;;;28.66;19.13;95413.44;4942956;28;20394;-91
2023/06/09 10:48:43;;;;;;;3.03;2.72;;;;;;;28.97;19.10;95419.47;4924851;29;20161;-91
2023/06/09 10:51:27;;;;;;;5.18;2.92;;;;;;;28.99;19.19;95409.06;4943898;29;20443;-91
2023/06/09 10:54:09;;;;;;;4.40;2.83;;;;;;;29.25;19.56;95414.88;4957649;28;20064;-91
2023/06/09 10:56:41;;;;;;;3.83;2.70;;;;;;;29.12;19.71;95412.88;4941540;28;20039;-91
2023/06/09 10:59:25;;;;;;;4.00;2.70;;;;;;;28.55;18.65;95392.84;4928880;28;20046;-90
2023/06/09 11:02:02;;;;;;;3.63;2.80;;;;;;;29.03;19.10;95401.84;4944167;28;20047;-90
2023/06/09 11:04:37;;;;;;;4.15;2.85;;;;;;;28.95;18.74;95408.81;4956220;28;20051;-90
2023/06/09 11:07:09;;;;;;;8.32;4.15;;;;;;;28.44;19.52;95405.06;4953388;28;20536;-89
2023/06/09 11:09:34;;;;;;;6.15;3.30;;;;;;;28.57;19.35;95406.19;4941334;28;20043;-90
2023/06/09 11:12:00;;;;;;;5.83;3.50;;;;;;;28.60;19.99;95408.34;4925336;29;20051;-90
2023/06/09 11:14:44;;;;;;;5.73;3.33;;;;;;;28.39;19.38;95398.56;4925885;28;20101;-91
2023/06/09 11:17:16;;;;;;;4.78;3.30;;;;;;;28.36;19.53;95398.34;4940048;28;20047;-92
2023/06/09 11:19:42;;;;;;;5.80;3.30;;;;;;;28.41;19.77;95403.72;4925981;28;20062;-91
2023/06/09 11:22:11;;;;;;;7.37;3.40;;;;;;;28.24;20.49;95399.63;4910507;28;20459;-90
2023/06/09 11:24:51;;;;;;;7.15;3.40;;;;;;;28.26;20.12;95416.56;4942770;28;20357;-89
2023/06/09 11:27:17;;;;;;;5.88;3.63;;;;;;;28.58;19.15;95405.09;4942109;29;20030;-90
2023/06/09 11:29:43;;;;;;;;;;;;;;;28.61;19.40;95407.22;4941326;28;20190;-91
2023/06/09 11:32:08;;;;;;;7.53;3.80;;;;;;;28.42;19.87;95408.91;4942389;29;20377;-91
2023/06/09 11:34:55;;;;;;;5.40;3.63;;;;;;;28.42;19.57;95400.69;4944049;28;20094;-88
2023/06/09 11:37:20;;;;;;;4.95;3.38;;;;;;;28.60;19.75;95402.88;4951259;28;20059;-92